sensor_id;sensor_type;location;lat;lon;timestamp;P1;durP1;ratioP1;P2;durP2;ratioP2
48861;SDS011;34681;49.188;-0.374;2023-03-01T00:01:04;14.57;;;13.23;;
48861;SDS011;34681;49.188;-0.374;2023-03-01T00:03:32;13.67;;;12.37;;
48861;SDS011;34681;49.188;-0.374;2023-03-01T00:05:58;14.70;;;13.50;;
48861;SDS011;34681;49.188;-0.374;2023-03-01T00:08:24;13.77;;;12.47;;
48861;SDS011;34681;49.188;-0.374;2023-03-01T00:10:59;14.87;;;13.67;;
48861;SDS011;34681;49.188;-0.374;2023-03-01T00:13:28;14.87;;;13.70;;
48861;SDS011;34681;49.188;-0.374;2023-03-01T00:15:54;13.40;;;12.30;;
48861;SDS011;34681;49.188;-0.374;2023-03-01T00:18:19;14.53;;;13.33;;
48861;SDS011;34681;49.188;-0.374;2023-03-01T00:20:54;13.70;;;12.50;;
48861;SDS011;34681;49.188;-0.374;2023-03-01T00:23:21;14.37;;;12.97;;
48861;SDS011;34681;49.188;-0.374;2023-03-01T00:25:48;13.60;;;12.40;;
48861;SDS011;34681;49.188;-0.374;2023-03-01T00:28:13;12.60;;;11.60;;
48861;SDS011;34681;49.188;-0.374;2023-03-01T00:30:39;14.33;;;12.80;;
48861;SDS011;34681;49.188;-0.374;2023-03-01T00:33:05;13.57;;;12.43;;
48861;SDS011;34681;49.188;-0.374;2023-03-01T00:35:31;13.67;;;12.17;;
48861;SDS011;34681;49.188;-0.374;2023-03-01T00:37:57;17.43;;;12.33;;
48861;SDS011;34681;49.188;-0.374;2023-03-01T00:40:29;16.30;;;13.47;;
48861;SDS011;34681;49.188;-0.374;2023-03-01T00:42:57;13.33;;;11.60;;
48861;SDS011;34681;49.188;-0.374;2023-03-01T00:45:23;16.47;;;11.63;;
48861;SDS011;34681;49.188;-0.374;2023-03-01T00:47:49;16.80;;;13.33;;
48861;SDS011;34681;49.188;-0.374;2023-03-01T00:50:15;14.33;;;11.00;;
48861;SDS011;34681;49.188;-0.374;2023-03-01T00:52:41;12.47;;;11.47;;
48861;SDS011;34681;49.188;-0.374;2023-03-01T00:55:07;13.00;;;11.90;;
48861;SDS011;34681;49.188;-0.374;2023-03-01T00:57:33;15.30;;;12.10;;
48861;SDS011;34681;49.188;-0.374;2023-03-01T00:59:58;15.80;;;12.20;;
48861;SDS011;34681;49.188;-0.374;2023-03-01T01:02:24;15.67;;;10.30;;
48861;SDS011;34681;49.188;-0.374;2023-03-01T01:04:49;18.53;;;12.20;;
48861;SDS011;34681;49.188;-0.374;2023-03-01T01:07:15;12.67;;;11.20;;
48861;SDS011;34681;49.188;-0.374;2023-03-01T01:09:41;12.17;;;11.00;;
48861;SDS011;34681;49.188;-0.374;2023-03-01T01:12:06;12.60;;;11.50;;
48861;SDS011;34681;49.188;-0.374;2023-03-01T01:14:32;13.30;;;12.03;;
48861;SDS011;34681;49.188;-0.374;2023-03-01T01:16:58;12.40;;;11.20;;
48861;SDS011;34681;49.188;-0.374;2023-03-01T01:19:23;16.83;;;12.50;;
48861;SDS011;34681;49.188;-0.374;2023-03-01T01:21:49;14.13;;;12.83;;
48861;SDS011;34681;49.188;-0.374;2023-03-01T01:24:15;13.60;;;11.50;;
48861;SDS011;34681;49.188;-0.374;2023-03-01T01:26:41;12.63;;;11.40;;
48861;SDS011;34681;49.188;-0.374;2023-03-01T01:29:07;14.43;;;11.50;;
48861;SDS011;34681;49.188;-0.374;2023-03-01T01:31:34;13.13;;;11.80;;
48861;SDS011;34681;49.188;-0.374;2023-03-01T01:34:02;13.17;;;11.63;;
48861;SDS011;34681;49.188;-0.374;2023-03-01T01:36:29;13.93;;;12.13;;
48861;SDS011;34681;49.188;-0.374;2023-03-01T01:38:55;16.80;;;11.83;;
48861;SDS011;34681;49.188;-0.374;2023-03-01T01:41:21;13.80;;;12.53;;
48861;SDS011;34681;49.188;-0.374;2023-03-01T01:49:24;13.90;;;12.27;;
48861;SDS011;34681;49.188;-0.374;2023-03-01T01:51:59;13.97;;;11.87;;
48861;SDS011;34681;49.188;-0.374;2023-03-01T01:54:42;12.20;;;11.10;;
48861;SDS011;34681;49.188;-0.374;2023-03-01T01:57:31;12.33;;;11.20;;
48861;SDS011;34681;49.188;-0.374;2023-03-01T02:00:04;10.80;;;10.00;;
48861;SDS011;34681;49.188;-0.374;2023-03-01T02:02:35;14.63;;;11.20;;
48861;SDS011;34681;49.188;-0.374;2023-03-01T02:05:06;12.60;;;10.90;;
48861;SDS011;34681;49.188;-0.374;2023-03-01T02:07:35;11.40;;;10.40;;
48861;SDS011;34681;49.188;-0.374;2023-03-01T02:10:04;10.77;;;9.87;;
48861;SDS011;34681;49.188;-0.374;2023-03-01T02:12:29;10.80;;;9.90;;
48861;SDS011;34681;49.188;-0.374;2023-03-01T02:14:56;9.63;;;8.83;;
48861;SDS011;34681;49.188;-0.374;2023-03-01T02:17:21;10.37;;;9.47;;
48861;SDS011;34681;49.188;-0.374;2023-03-01T02:19:53;11.30;;;10.30;;
48861;SDS011;34681;49.188;-0.374;2023-03-01T02:22:40;9.53;;;8.70;;
48861;SDS011;34681;49.188;-0.374;2023-03-01T02:25:22;11.60;;;10.47;;
48861;SDS011;34681;49.188;-0.374;2023-03-01T02:27:54;10.87;;;9.90;;
48861;SDS011;34681;49.188;-0.374;2023-03-01T02:30:23;11.93;;;10.93;;
48861;SDS011;34681;49.188;-0.374;2023-03-01T02:32:50;10.37;;;9.40;;
48861;SDS011;34681;49.188;-0.374;2023-03-01T02:35:19;11.30;;;10.37;;
48861;SDS011;34681;49.188;-0.374;2023-03-01T02:37:46;12.97;;;11.60;;
48861;SDS011;34681;49.188;-0.374;2023-03-01T02:40:13;11.87;;;10.70;;
48861;SDS011;34681;49.188;-0.374;2023-03-01T02:42:55;11.30;;;10.20;;
48861;SDS011;34681;49.188;-0.374;2023-03-01T02:45:23;13.97;;;12.27;;
48861;SDS011;34681;49.188;-0.374;2023-03-01T02:47:49;12.23;;;11.13;;
48861;SDS011;34681;49.188;-0.374;2023-03-01T02:55:46;12.37;;;11.20;;
48861;SDS011;34681;49.188;-0.374;2023-03-01T02:58:13;12.57;;;11.30;;
48861;SDS011;34681;49.188;-0.374;2023-03-01T03:00:40;14.17;;;11.20;;
48861;SDS011;34681;49.188;-0.374;2023-03-01T03:03:15;12.33;;;11.13;;
48861;SDS011;34681;49.188;-0.374;2023-03-01T03:05:42;12.23;;;11.27;;
48861;SDS011;34681;49.188;-0.374;2023-03-01T03:08:08;13.03;;;11.73;;
48861;SDS011;34681;49.188;-0.374;2023-03-01T03:10:34;12.27;;;10.97;;
48861;SDS011;34681;49.188;-0.374;2023-03-01T03:13:03;12.37;;;11.30;;
48861;SDS011;34681;49.188;-0.374;2023-03-01T03:15:30;13.20;;;12.00;;
48861;SDS011;34681;49.188;-0.374;2023-03-01T03:17:56;12.80;;;11.60;;
48861;SDS011;34681;49.188;-0.374;2023-03-01T03:20:25;12.40;;;11.30;;
48861;SDS011;34681;49.188;-0.374;2023-03-01T03:22:53;12.53;;;11.37;;
48861;SDS011;34681;49.188;-0.374;2023-03-01T03:25:20;13.23;;;11.93;;
48861;SDS011;34681;49.188;-0.374;2023-03-01T03:27:47;14.27;;;11.00;;
48861;SDS011;34681;49.188;-0.374;2023-03-01T03:30:14;12.13;;;11.10;;
48861;SDS011;34681;49.188;-0.374;2023-03-01T03:32:42;12.77;;;11.60;;
48861;SDS011;34681;49.188;-0.374;2023-03-01T03:35:18;13.17;;;12.17;;
48861;SDS011;34681;49.188;-0.374;2023-03-01T03:37:45;13.93;;;12.73;;
48861;SDS011;34681;49.188;-0.374;2023-03-01T03:40:27;14.17;;;12.23;;
48861;SDS011;34681;49.188;-0.374;2023-03-01T03:43:00;13.00;;;11.63;;
48861;SDS011;34681;49.188;-0.374;2023-03-01T03:45:26;13.20;;;12.00;;
48861;SDS011;34681;49.188;-0.374;2023-03-01T03:47:52;14.33;;;13.03;;
48861;SDS011;34681;49.188;-0.374;2023-03-01T03:50:18;15.10;;;12.73;;
48861;SDS011;34681;49.188;-0.374;2023-03-01T03:52:44;13.33;;;12.20;;
48861;SDS011;34681;49.188;-0.374;2023-03-01T03:55:10;13.57;;;12.30;;
48861;SDS011;34681;49.188;-0.374;2023-03-01T03:57:40;12.63;;;11.30;;
48861;SDS011;34681;49.188;-0.374;2023-03-01T04:00:07;10.40;;;9.50;;
48861;SDS011;34681;49.188;-0.374;2023-03-01T04:02:41;12.60;;;11.50;;
48861;SDS011;34681;49.188;-0.374;2023-03-01T04:05:07;12.23;;;10.90;;
48861;SDS011;34681;49.188;-0.374;2023-03-01T04:07:34;11.47;;;10.27;;
48861;SDS011;34681;49.188;-0.374;2023-03-01T04:10:01;12.27;;;11.03;;
48861;SDS011;34681;49.188;-0.374;2023-03-01T04:12:27;13.27;;;11.97;;
48861;SDS011;34681;49.188;-0.374;2023-03-01T04:14:53;13.00;;;11.80;;
48861;SDS011;34681;49.188;-0.374;2023-03-01T04:17:18;11.80;;;10.80;;
48861;SDS011;34681;49.188;-0.374;2023-03-01T04:19:44;11.93;;;10.97;;
48861;SDS011;34681;49.188;-0.374;2023-03-01T04:22:13;14.23;;;12.83;;
48861;SDS011;34681;49.188;-0.374;2023-03-01T04:24:42;15.63;;;13.43;;
48861;SDS011;34681;49.188;-0.374;2023-03-01T04:27:08;13.97;;;12.77;;
48861;SDS011;34681;49.188;-0.374;2023-03-01T04:29:34;16.10;;;13.20;;
48861;SDS011;34681;49.188;-0.374;2023-03-01T04:31:59;14.40;;;13.10;;
48861;SDS011;34681;49.188;-0.374;2023-03-01T04:34:24;15.63;;;13.93;;
48861;SDS011;34681;49.188;-0.374;2023-03-01T04:36:51;17.13;;;13.50;;
48861;SDS011;34681;49.188;-0.374;2023-03-01T04:39:17;14.03;;;12.67;;
48861;SDS011;34681;49.188;-0.374;2023-03-01T04:41:42;15.13;;;13.40;;
48861;SDS011;34681;49.188;-0.374;2023-03-01T04:44:08;15.43;;;14.13;;
48861;SDS011;34681;49.188;-0.374;2023-03-01T04:46:34;13.93;;;12.50;;
48861;SDS011;34681;49.188;-0.374;2023-03-01T04:49:00;17.10;;;13.83;;
48861;SDS011;34681;49.188;-0.374;2023-03-01T04:51:25;16.10;;;14.60;;
48861;SDS011;34681;49.188;-0.374;2023-03-01T04:53:50;24.93;;;15.00;;
48861;SDS011;34681;49.188;-0.374;2023-03-01T04:56:16;14.90;;;12.93;;
48861;SDS011;34681;49.188;-0.374;2023-03-01T04:58:45;13.90;;;12.60;;
48861;SDS011;34681;49.188;-0.374;2023-03-01T05:01:12;14.97;;;13.37;;
48861;SDS011;34681;49.188;-0.374;2023-03-01T05:03:43;13.40;;;12.10;;
48861;SDS011;34681;49.188;-0.374;2023-03-01T05:06:09;14.47;;;12.87;;
48861;SDS011;34681;49.188;-0.374;2023-03-01T05:08:36;12.87;;;11.77;;
48861;SDS011;34681;49.188;-0.374;2023-03-01T05:11:02;13.90;;;12.50;;
48861;SDS011;34681;49.188;-0.374;2023-03-01T05:13:28;11.87;;;10.67;;
48861;SDS011;34681;49.188;-0.374;2023-03-01T05:15:58;13.60;;;11.17;;
48861;SDS011;34681;49.188;-0.374;2023-03-01T05:18:25;12.50;;;11.47;;
48861;SDS011;34681;49.188;-0.374;2023-03-01T05:20:51;16.70;;;11.37;;
48861;SDS011;34681;49.188;-0.374;2023-03-01T05:23:18;14.50;;;13.20;;
48861;SDS011;34681;49.188;-0.374;2023-03-01T05:25:43;13.10;;;12.00;;
48861;SDS011;34681;49.188;-0.374;2023-03-01T05:28:12;14.30;;;12.80;;
48861;SDS011;34681;49.188;-0.374;2023-03-01T05:30:37;13.70;;;12.50;;
48861;SDS011;34681;49.188;-0.374;2023-03-01T05:33:06;13.00;;;11.73;;
48861;SDS011;34681;49.188;-0.374;2023-03-01T05:35:38;13.87;;;12.67;;
48861;SDS011;34681;49.188;-0.374;2023-03-01T05:38:05;14.80;;;13.40;;
48861;SDS011;34681;49.188;-0.374;2023-03-01T05:40:32;15.37;;;13.77;;
48861;SDS011;34681;49.188;-0.374;2023-03-01T05:42:58;17.07;;;14.40;;
48861;SDS011;34681;49.188;-0.374;2023-03-01T05:45:24;14.37;;;12.87;;
48861;SDS011;34681;49.188;-0.374;2023-03-01T05:47:51;14.83;;;13.07;;
48861;SDS011;34681;49.188;-0.374;2023-03-01T05:50:37;18.93;;;14.23;;
48861;SDS011;34681;49.188;-0.374;2023-03-01T05:53:11;13.80;;;12.50;;
48861;SDS011;34681;49.188;-0.374;2023-03-01T05:55:38;17.80;;;14.13;;
48861;SDS011;34681;49.188;-0.374;2023-03-01T05:58:06;17.80;;;12.93;;
48861;SDS011;34681;49.188;-0.374;2023-03-01T06:00:36;15.00;;;13.60;;
48861;SDS011;34681;49.188;-0.374;2023-03-01T06:03:02;16.73;;;13.87;;
48861;SDS011;34681;49.188;-0.374;2023-03-01T06:05:28;15.07;;;13.60;;
48861;SDS011;34681;49.188;-0.374;2023-03-01T06:07:54;13.97;;;12.57;;
48861;SDS011;34681;49.188;-0.374;2023-03-01T06:10:20;17.27;;;15.60;;
48861;SDS011;34681;49.188;-0.374;2023-03-01T06:12:47;15.03;;;13.50;;
48861;SDS011;34681;49.188;-0.374;2023-03-01T06:15:13;17.00;;;15.30;;
48861;SDS011;34681;49.188;-0.374;2023-03-01T06:17:41;15.40;;;14.00;;
48861;SDS011;34681;49.188;-0.374;2023-03-01T06:20:15;16.10;;;14.47;;
48861;SDS011;34681;49.188;-0.374;2023-03-01T06:22:46;15.30;;;13.90;;
48861;SDS011;34681;49.188;-0.374;2023-03-01T06:25:13;16.60;;;14.90;;
48861;SDS011;34681;49.188;-0.374;2023-03-01T06:27:40;16.70;;;14.50;;
48861;SDS011;34681;49.188;-0.374;2023-03-01T06:30:07;19.77;;;16.37;;
48861;SDS011;34681;49.188;-0.374;2023-03-01T06:32:35;17.63;;;15.80;;
48861;SDS011;34681;49.188;-0.374;2023-03-01T06:35:02;17.80;;;15.97;;
48861;SDS011;34681;49.188;-0.374;2023-03-01T06:37:28;17.60;;;15.90;;
48861;SDS011;34681;49.188;-0.374;2023-03-01T06:39:54;19.03;;;17.10;;
48861;SDS011;34681;49.188;-0.374;2023-03-01T06:42:19;17.87;;;16.03;;
48861;SDS011;34681;49.188;-0.374;2023-03-01T06:44:44;18.70;;;16.87;;
48861;SDS011;34681;49.188;-0.374;2023-03-01T06:47:10;17.87;;;16.13;;
48861;SDS011;34681;49.188;-0.374;2023-03-01T06:49:36;18.50;;;16.70;;
48861;SDS011;34681;49.188;-0.374;2023-03-01T06:52:01;19.57;;;17.33;;
48861;SDS011;34681;49.188;-0.374;2023-03-01T06:54:27;22.90;;;16.37;;
48861;SDS011;34681;49.188;-0.374;2023-03-01T06:56:53;19.60;;;17.80;;
48861;SDS011;34681;49.188;-0.374;2023-03-01T06:59:18;22.77;;;18.10;;
48861;SDS011;34681;49.188;-0.374;2023-03-01T07:01:44;21.70;;;18.13;;
48861;SDS011;34681;49.188;-0.374;2023-03-01T07:04:10;20.57;;;18.37;;
48861;SDS011;34681;49.188;-0.374;2023-03-01T07:06:37;19.70;;;17.70;;
48861;SDS011;34681;49.188;-0.374;2023-03-01T07:09:04;20.03;;;18.13;;
48861;SDS011;34681;49.188;-0.374;2023-03-01T07:11:29;20.63;;;18.43;;
48861;SDS011;34681;49.188;-0.374;2023-03-01T07:13:55;22.93;;;17.70;;
48861;SDS011;34681;49.188;-0.374;2023-03-01T07:16:20;22.20;;;18.17;;
48861;SDS011;34681;49.188;-0.374;2023-03-01T07:18:46;19.70;;;17.70;;
48861;SDS011;34681;49.188;-0.374;2023-03-01T07:21:12;23.67;;;18.23;;
48861;SDS011;34681;49.188;-0.374;2023-03-01T07:23:38;22.20;;;18.47;;
48861;SDS011;34681;49.188;-0.374;2023-03-01T07:26:04;20.33;;;18.03;;
48861;SDS011;34681;49.188;-0.374;2023-03-01T07:28:30;22.17;;;19.77;;
48861;SDS011;34681;49.188;-0.374;2023-03-01T07:31:00;20.23;;;17.40;;
48861;SDS011;34681;49.188;-0.374;2023-03-01T07:33:26;19.20;;;17.20;;
48861;SDS011;34681;49.188;-0.374;2023-03-01T07:35:55;19.73;;;17.20;;
48861;SDS011;34681;49.188;-0.374;2023-03-01T07:38:25;20.77;;;16.87;;
48861;SDS011;34681;49.188;-0.374;2023-03-01T07:40:51;19.63;;;17.63;;
48861;SDS011;34681;49.188;-0.374;2023-03-01T07:43:16;19.00;;;16.97;;
48861;SDS011;34681;49.188;-0.374;2023-03-01T07:45:41;17.57;;;15.97;;
48861;SDS011;34681;49.188;-0.374;2023-03-01T07:48:07;19.00;;;16.00;;
48861;SDS011;34681;49.188;-0.374;2023-03-01T07:50:32;18.27;;;16.40;;
48861;SDS011;34681;49.188;-0.374;2023-03-01T07:52:59;18.57;;;16.90;;
48861;SDS011;34681;49.188;-0.374;2023-03-01T07:55:24;18.93;;;17.07;;
48861;SDS011;34681;49.188;-0.374;2023-03-01T07:57:49;17.83;;;15.30;;
48861;SDS011;34681;49.188;-0.374;2023-03-01T08:00:15;17.43;;;15.83;;
48861;SDS011;34681;49.188;-0.374;2023-03-01T08:02:40;17.10;;;15.50;;
48861;SDS011;34681;49.188;-0.374;2023-03-01T08:05:07;19.60;;;16.60;;
48861;SDS011;34681;49.188;-0.374;2023-03-01T08:07:34;19.33;;;16.00;;
48861;SDS011;34681;49.188;-0.374;2023-03-01T08:09:59;16.33;;;14.73;;
48861;SDS011;34681;49.188;-0.374;2023-03-01T08:12:24;18.23;;;16.43;;
48861;SDS011;34681;49.188;-0.374;2023-03-01T08:14:52;16.90;;;15.10;;
48861;SDS011;34681;49.188;-0.374;2023-03-01T08:17:17;19.17;;;16.67;;
48861;SDS011;34681;49.188;-0.374;2023-03-01T08:19:43;18.37;;;15.63;;
48861;SDS011;34681;49.188;-0.374;2023-03-01T08:22:08;16.97;;;15.33;;
48861;SDS011;34681;49.188;-0.374;2023-03-01T08:24:34;19.63;;;16.20;;
48861;SDS011;34681;49.188;-0.374;2023-03-01T08:26:59;18.47;;;16.47;;
48861;SDS011;34681;49.188;-0.374;2023-03-01T08:29:24;19.00;;;16.43;;
48861;SDS011;34681;49.188;-0.374;2023-03-01T08:31:50;17.60;;;15.80;;
48861;SDS011;34681;49.188;-0.374;2023-03-01T08:34:18;19.37;;;16.77;;
48861;SDS011;34681;49.188;-0.374;2023-03-01T08:36:45;18.63;;;16.60;;
48861;SDS011;34681;49.188;-0.374;2023-03-01T08:39:15;17.63;;;15.93;;
48861;SDS011;34681;49.188;-0.374;2023-03-01T08:41:42;18.00;;;16.20;;
48861;SDS011;34681;49.188;-0.374;2023-03-01T08:44:09;17.87;;;16.27;;
48861;SDS011;34681;49.188;-0.374;2023-03-01T08:46:37;15.80;;;14.50;;
48861;SDS011;34681;49.188;-0.374;2023-03-01T08:49:04;25.03;;;15.73;;
48861;SDS011;34681;49.188;-0.374;2023-03-01T08:51:30;14.93;;;13.60;;
48861;SDS011;34681;49.188;-0.374;2023-03-01T08:54:01;14.73;;;12.70;;
48861;SDS011;34681;49.188;-0.374;2023-03-01T08:56:31;15.97;;;14.40;;
48861;SDS011;34681;49.188;-0.374;2023-03-01T08:59:02;15.33;;;14.03;;
48861;SDS011;34681;49.188;-0.374;2023-03-01T09:01:34;15.07;;;12.57;;
48861;SDS011;34681;49.188;-0.374;2023-03-01T09:03:59;17.83;;;13.90;;
48861;SDS011;34681;49.188;-0.374;2023-03-01T09:06:24;13.93;;;12.70;;
48861;SDS011;34681;49.188;-0.374;2023-03-01T09:08:50;13.30;;;12.30;;
48861;SDS011;34681;49.188;-0.374;2023-03-01T09:11:17;15.53;;;12.60;;
48861;SDS011;34681;49.188;-0.374;2023-03-01T09:13:45;14.13;;;12.73;;
48861;SDS011;34681;49.188;-0.374;2023-03-01T09:16:11;13.80;;;12.47;;
48861;SDS011;34681;49.188;-0.374;2023-03-01T09:18:38;13.77;;;11.73;;
48861;SDS011;34681;49.188;-0.374;2023-03-01T09:21:05;13.40;;;12.10;;
48861;SDS011;34681;49.188;-0.374;2023-03-01T09:23:38;13.07;;;11.70;;
48861;SDS011;34681;49.188;-0.374;2023-03-01T09:26:07;11.83;;;10.80;;
48861;SDS011;34681;49.188;-0.374;2023-03-01T09:28:35;12.40;;;11.30;;
48861;SDS011;34681;49.188;-0.374;2023-03-01T09:31:01;11.03;;;9.90;;
48861;SDS011;34681;49.188;-0.374;2023-03-01T09:33:28;10.67;;;9.67;;
48861;SDS011;34681;49.188;-0.374;2023-03-01T09:35:58;9.03;;;8.40;;
48861;SDS011;34681;49.188;-0.374;2023-03-01T09:38:24;9.13;;;8.33;;
48861;SDS011;34681;49.188;-0.374;2023-03-01T09:40:50;10.67;;;8.60;;
48861;SDS011;34681;49.188;-0.374;2023-03-01T09:43:18;8.47;;;7.70;;
48861;SDS011;34681;49.188;-0.374;2023-03-01T09:45:50;8.90;;;7.97;;
48861;SDS011;34681;49.188;-0.374;2023-03-01T09:48:20;10.13;;;9.13;;
48861;SDS011;34681;49.188;-0.374;2023-03-01T09:50:49;8.30;;;7.50;;
48861;SDS011;34681;49.188;-0.374;2023-03-01T09:59:03;8.73;;;8.03;;
48861;SDS011;34681;49.188;-0.374;2023-03-01T10:04:46;9.23;;;8.60;;
48861;SDS011;34681;49.188;-0.374;2023-03-01T10:09:55;8.60;;;7.87;;
48861;SDS011;34681;49.188;-0.374;2023-03-01T10:12:22;9.47;;;8.50;;
48861;SDS011;34681;49.188;-0.374;2023-03-01T10:18:13;8.80;;;8.00;;
48861;SDS011;34681;49.188;-0.374;2023-03-01T10:20:53;9.57;;;8.70;;
48861;SDS011;34681;49.188;-0.374;2023-03-01T10:23:25;9.53;;;8.73;;
48861;SDS011;34681;49.188;-0.374;2023-03-01T10:28:44;9.97;;;8.93;;
48861;SDS011;34681;49.188;-0.374;2023-03-01T10:31:24;9.60;;;8.80;;
48861;SDS011;34681;49.188;-0.374;2023-03-01T10:33:54;9.57;;;8.87;;
48861;SDS011;34681;49.188;-0.374;2023-03-01T10:36:21;10.70;;;9.90;;
48861;SDS011;34681;49.188;-0.374;2023-03-01T10:38:49;8.10;;;7.47;;
48861;SDS011;34681;49.188;-0.374;2023-03-01T10:41:19;8.90;;;8.10;;
48861;SDS011;34681;49.188;-0.374;2023-03-01T10:46:22;8.37;;;7.57;;
48861;SDS011;34681;49.188;-0.374;2023-03-01T10:49:15;15.83;;;8.00;;
48861;SDS011;34681;49.188;-0.374;2023-03-01T10:51:49;9.43;;;8.60;;
48861;SDS011;34681;49.188;-0.374;2023-03-01T10:56:53;10.80;;;9.80;;
48861;SDS011;34681;49.188;-0.374;2023-03-01T10:59:31;9.90;;;9.03;;
48861;SDS011;34681;49.188;-0.374;2023-03-01T11:02:03;9.97;;;9.07;;
48861;SDS011;34681;49.188;-0.374;2023-03-01T11:04:28;11.53;;;10.53;;
48861;SDS011;34681;49.188;-0.374;2023-03-01T11:07:00;13.90;;;9.90;;
48861;SDS011;34681;49.188;-0.374;2023-03-01T11:09:29;12.40;;;9.83;;
48861;SDS011;34681;49.188;-0.374;2023-03-01T11:12:02;12.17;;;10.97;;
48861;SDS011;34681;49.188;-0.374;2023-03-01T11:14:32;10.30;;;9.33;;
48861;SDS011;34681;49.188;-0.374;2023-03-01T11:17:05;11.60;;;10.50;;
48861;SDS011;34681;49.188;-0.374;2023-03-01T11:19:37;14.87;;;11.90;;
48861;SDS011;34681;49.188;-0.374;2023-03-01T11:22:13;12.23;;;11.13;;
48861;SDS011;34681;49.188;-0.374;2023-03-01T11:24:49;12.60;;;11.43;;
48861;SDS011;34681;49.188;-0.374;2023-03-01T11:27:32;11.50;;;10.40;;
48861;SDS011;34681;49.188;-0.374;2023-03-01T11:32:28;13.93;;;12.60;;
48861;SDS011;34681;49.188;-0.374;2023-03-01T11:35:10;14.00;;;12.70;;
48861;SDS011;34681;49.188;-0.374;2023-03-01T11:37:55;14.53;;;13.23;;
48861;SDS011;34681;49.188;-0.374;2023-03-01T11:56:54;18.53;;;16.73;;
48861;SDS011;34681;49.188;-0.374;2023-03-01T12:07:39;17.97;;;16.37;;
48861;SDS011;34681;49.188;-0.374;2023-03-01T12:10:16;18.23;;;16.43;;
48861;SDS011;34681;49.188;-0.374;2023-03-01T12:15:22;16.90;;;15.50;;
48861;SDS011;34681;49.188;-0.374;2023-03-01T12:18:13;17.83;;;16.13;;
48861;SDS011;34681;49.188;-0.374;2023-03-01T12:31:36;18.27;;;16.60;;
48861;SDS011;34681;49.188;-0.374;2023-03-01T12:37:13;20.97;;;17.67;;
48861;SDS011;34681;49.188;-0.374;2023-03-01T12:49:17;18.00;;;15.90;;
48861;SDS011;34681;49.188;-0.374;2023-03-01T12:54:36;17.40;;;15.70;;
48861;SDS011;34681;49.188;-0.374;2023-03-01T12:57:14;17.70;;;16.20;;
48861;SDS011;34681;49.188;-0.374;2023-03-01T13:02:35;16.27;;;14.93;;
48861;SDS011;34681;49.188;-0.374;2023-03-01T13:08:06;16.93;;;15.30;;
48861;SDS011;34681;49.188;-0.374;2023-03-01T13:10:46;17.57;;;15.73;;
48861;SDS011;34681;49.188;-0.374;2023-03-01T13:15:49;16.20;;;14.80;;
48861;SDS011;34681;49.188;-0.374;2023-03-01T13:23:23;16.57;;;14.97;;
48861;SDS011;34681;49.188;-0.374;2023-03-01T13:26:01;13.60;;;12.47;;
48861;SDS011;34681;49.188;-0.374;2023-03-01T13:31:06;12.77;;;11.50;;
48861;SDS011;34681;49.188;-0.374;2023-03-01T13:33:34;15.10;;;13.70;;
48861;SDS011;34681;49.188;-0.374;2023-03-01T13:36:05;15.23;;;13.63;;
48861;SDS011;34681;49.188;-0.374;2023-03-01T13:47:07;13.63;;;12.40;;
48861;SDS011;34681;49.188;-0.374;2023-03-01T13:49:47;12.73;;;11.10;;
48861;SDS011;34681;49.188;-0.374;2023-03-01T13:52:55;12.50;;;11.00;;
48861;SDS011;34681;49.188;-0.374;2023-03-01T13:55:52;13.43;;;12.23;;
48861;SDS011;34681;49.188;-0.374;2023-03-01T13:58:02;12.30;;;11.30;;
48861;SDS011;34681;49.188;-0.374;2023-03-01T14:00:39;13.20;;;11.80;;
48861;SDS011;34681;49.188;-0.374;2023-03-01T14:05:32;11.83;;;10.83;;
48861;SDS011;34681;49.188;-0.374;2023-03-01T14:07:58;10.90;;;9.90;;
48861;SDS011;34681;49.188;-0.374;2023-03-01T14:10:25;14.00;;;12.60;;
48861;SDS011;34681;49.188;-0.374;2023-03-01T14:13:02;13.03;;;11.40;;
48861;SDS011;34681;49.188;-0.374;2023-03-01T14:15:38;16.30;;;10.63;;
48861;SDS011;34681;49.188;-0.374;2023-03-01T14:20:37;12.00;;;11.00;;
48861;SDS011;34681;49.188;-0.374;2023-03-01T14:23:09;11.80;;;10.70;;
48861;SDS011;34681;49.188;-0.374;2023-03-01T14:25:46;10.30;;;9.50;;
48861;SDS011;34681;49.188;-0.374;2023-03-01T14:28:26;11.40;;;9.87;;
48861;SDS011;34681;49.188;-0.374;2023-03-01T14:30:54;12.70;;;9.83;;
48861;SDS011;34681;49.188;-0.374;2023-03-01T14:35:54;10.43;;;8.87;;
48861;SDS011;34681;49.188;-0.374;2023-03-01T14:38:23;9.57;;;8.60;;
48861;SDS011;34681;49.188;-0.374;2023-03-01T14:40:58;8.83;;;8.03;;
48861;SDS011;34681;49.188;-0.374;2023-03-01T14:43:27;9.23;;;8.43;;
48861;SDS011;34681;49.188;-0.374;2023-03-01T14:45:54;9.00;;;8.20;;
48861;SDS011;34681;49.188;-0.374;2023-03-01T14:48:20;10.40;;;8.50;;
48861;SDS011;34681;49.188;-0.374;2023-03-01T14:50:46;14.07;;;8.90;;
48861;SDS011;34681;49.188;-0.374;2023-03-01T14:53:20;11.53;;;9.13;;
48861;SDS011;34681;49.188;-0.374;2023-03-01T14:55:52;17.13;;;8.87;;
48861;SDS011;34681;49.188;-0.374;2023-03-01T14:58:21;9.90;;;8.97;;
48861;SDS011;34681;49.188;-0.374;2023-03-01T15:00:50;9.50;;;8.60;;
48861;SDS011;34681;49.188;-0.374;2023-03-01T15:06:02;9.67;;;8.87;;
48861;SDS011;34681;49.188;-0.374;2023-03-01T15:08:29;8.90;;;8.10;;
48861;SDS011;34681;49.188;-0.374;2023-03-01T15:11:05;11.40;;;9.20;;
48861;SDS011;34681;49.188;-0.374;2023-03-01T15:13:41;12.50;;;9.67;;
48861;SDS011;34681;49.188;-0.374;2023-03-01T15:19:02;10.97;;;8.30;;
48861;SDS011;34681;49.188;-0.374;2023-03-01T15:21:34;11.20;;;8.10;;
48861;SDS011;34681;49.188;-0.374;2023-03-01T15:24:16;9.80;;;8.90;;
48861;SDS011;34681;49.188;-0.374;2023-03-01T15:26:49;9.87;;;8.97;;
48861;SDS011;34681;49.188;-0.374;2023-03-01T15:29:20;14.97;;;9.13;;
48861;SDS011;34681;49.188;-0.374;2023-03-01T15:31:58;9.30;;;8.20;;
48861;SDS011;34681;49.188;-0.374;2023-03-01T15:34:29;9.63;;;8.70;;
48861;SDS011;34681;49.188;-0.374;2023-03-01T15:36:55;11.83;;;9.60;;
48861;SDS011;34681;49.188;-0.374;2023-03-01T15:39:30;11.53;;;9.33;;
48861;SDS011;34681;49.188;-0.374;2023-03-01T15:45:07;13.90;;;10.67;;
48861;SDS011;34681;49.188;-0.374;2023-03-01T15:47:35;11.30;;;10.40;;
48861;SDS011;34681;49.188;-0.374;2023-03-01T15:50:02;11.90;;;10.70;;
48861;SDS011;34681;49.188;-0.374;2023-03-01T15:52:29;14.63;;;10.33;;
48861;SDS011;34681;49.188;-0.374;2023-03-01T15:55:03;12.70;;;11.40;;
48861;SDS011;34681;49.188;-0.374;2023-03-01T15:57:31;11.73;;;10.60;;
48861;SDS011;34681;49.188;-0.374;2023-03-01T15:59:57;12.00;;;10.80;;
48861;SDS011;34681;49.188;-0.374;2023-03-01T16:02:23;11.13;;;10.13;;
48861;SDS011;34681;49.188;-0.374;2023-03-01T16:04:49;18.60;;;11.50;;
48861;SDS011;34681;49.188;-0.374;2023-03-01T16:07:14;14.20;;;10.77;;
48861;SDS011;34681;49.188;-0.374;2023-03-01T16:09:40;12.40;;;11.20;;
48861;SDS011;34681;49.188;-0.374;2023-03-01T16:12:08;12.50;;;11.20;;
48861;SDS011;34681;49.188;-0.374;2023-03-01T16:14:39;15.40;;;10.70;;
48861;SDS011;34681;49.188;-0.374;2023-03-01T16:17:04;14.23;;;11.80;;
48861;SDS011;34681;49.188;-0.374;2023-03-01T16:19:30;13.77;;;11.63;;
48861;SDS011;34681;49.188;-0.374;2023-03-01T16:21:55;12.27;;;11.17;;
48861;SDS011;34681;49.188;-0.374;2023-03-01T16:24:21;11.37;;;10.27;;
48861;SDS011;34681;49.188;-0.374;2023-03-01T16:26:46;14.97;;;11.67;;
48861;SDS011;34681;49.188;-0.374;2023-03-01T16:29:11;12.30;;;11.13;;
48861;SDS011;34681;49.188;-0.374;2023-03-01T16:31:37;11.70;;;10.53;;
48861;SDS011;34681;49.188;-0.374;2023-03-01T16:34:02;13.23;;;10.77;;